Terminal Aerodrome Forecast
Issued by NWS

Current Version | Previous Version | Graphics & Text | Print | Product List | Glossary On
Versions: 1 2 3 4 5 6 7 8 9 10 11 12 13 14 15 16 17
000
FTUS41 KILN 251100
TAFLCK
TAF
KLCK 251130Z 2512/2612 VRB03KT P6SM SCT250
     FM251500 22007KT P6SM SCT040
     FM260000 18003KT P6SM SCT250
     FM260700 18004KT P6SM BKN100=

USA.gov is the U.S. government's official web portal to all federal, state and local government web resources and services.